createdAt,value
2018-05-07T00:01:56.563Z,2.10
2018-05-07T00:04:24.164Z,3.07
2018-05-07T00:06:51.790Z,2.07
2018-05-07T00:09:19.357Z,2.60
2018-05-07T00:11:47.289Z,3.10
2018-05-07T00:14:14.913Z,2.93
2018-05-07T00:16:42.497Z,2.90
2018-05-07T00:19:10.166Z,2.47
2018-05-07T00:21:37.866Z,2.70
2018-05-07T00:24:05.433Z,2.50
2018-05-07T00:26:33.386Z,2.43
2018-05-07T00:29:00.964Z,2.73
2018-05-07T00:31:28.520Z,3.23
2018-05-07T00:33:56.593Z,3.03
2018-05-07T00:36:24.167Z,3.10
2018-05-07T00:38:51.820Z,2.90
2018-05-07T00:41:19.472Z,2.90
2018-05-07T00:43:47.015Z,2.77
2018-05-07T00:46:14.588Z,2.77
2018-05-07T00:48:42.202Z,2.80
2018-05-07T00:51:09.795Z,2.97
2018-05-07T00:53:37.522Z,3.10
2018-05-07T00:56:05.089Z,3.03
2018-05-07T00:58:32.646Z,3.33
2018-05-07T01:01:00.260Z,2.93
2018-05-07T01:03:27.851Z,3.13
2018-05-07T01:05:55.536Z,2.80
2018-05-07T01:08:23.408Z,2.93
2018-05-07T01:10:51.058Z,3.00
2018-05-07T01:13:18.679Z,2.67
2018-05-07T01:15:46.314Z,3.17
2018-05-07T01:18:13.907Z,3.00
2018-05-07T01:20:41.487Z,2.73
2018-05-07T01:23:09.100Z,2.87
2018-05-07T01:25:36.651Z,3.23
2018-05-07T01:28:04.210Z,2.83
2018-05-07T01:30:31.980Z,2.73
2018-05-07T01:32:59.816Z,3.27
2018-05-07T01:35:27.693Z,2.70
2018-05-07T01:37:55.450Z,4.17
2018-05-07T01:40:23.235Z,2.60
2018-05-07T01:42:50.837Z,3.43
2018-05-07T01:45:18.522Z,3.27
2018-05-07T01:47:46.089Z,2.77
2018-05-07T01:50:13.732Z,3.37
2018-05-07T01:52:41.310Z,3.70
2018-05-07T01:55:08.861Z,3.20
2018-05-07T01:57:37.129Z,3.33
2018-05-07T02:00:04.712Z,3.30
2018-05-07T02:02:32.257Z,3.00
2018-05-07T02:04:59.845Z,2.93
2018-05-07T02:07:27.443Z,3.30
2018-05-07T02:09:54.996Z,3.30
2018-05-07T02:12:22.549Z,2.87
2018-05-07T02:14:50.354Z,3.70
2018-05-07T02:17:18.148Z,3.00
2018-05-07T02:19:45.785Z,3.17
2018-05-07T02:22:13.472Z,3.37
2018-05-07T02:24:41.086Z,4.00
2018-05-07T02:27:08.645Z,3.43
2018-05-07T02:29:36.272Z,3.30
2018-05-07T02:32:03.836Z,3.77
2018-05-07T02:34:31.512Z,2.90
2018-05-07T02:36:59.096Z,3.17
2018-05-07T02:39:26.646Z,3.63
2018-05-07T02:41:54.247Z,3.07
2018-05-07T02:44:21.903Z,4.27
2018-05-07T02:46:49.481Z,3.87
2018-05-07T02:49:17.130Z,3.23
2018-05-07T02:51:44.730Z,3.70
2018-05-07T02:54:12.338Z,3.50
2018-05-07T02:56:40.025Z,3.43
2018-05-07T02:59:07.592Z,3.87
2018-05-07T03:01:35.215Z,3.60
2018-05-07T03:04:02.903Z,3.50
2018-05-07T03:06:30.465Z,3.23
2018-05-07T03:08:58.016Z,3.97
2018-05-07T03:11:25.588Z,3.50
2018-05-07T03:13:53.221Z,3.40
2018-05-07T03:16:20.826Z,4.10
2018-05-07T03:18:48.538Z,3.70
2018-05-07T03:21:16.490Z,4.20
2018-05-07T03:23:44.427Z,4.10
2018-05-07T03:26:12.026Z,3.63
2018-05-07T03:28:39.880Z,4.03
2018-05-07T03:31:07.439Z,3.90
2018-05-07T03:33:35.077Z,3.63
2018-05-07T03:36:03.196Z,3.70
2018-05-07T03:38:30.763Z,4.17
2018-05-07T03:40:58.332Z,4.50
2018-05-07T03:43:26.161Z,4.60
2018-05-07T03:45:53.784Z,4.50
2018-05-07T03:48:21.403Z,5.20
2018-05-07T03:50:48.973Z,4.17
2018-05-07T03:53:16.571Z,4.27
2018-05-07T03:55:44.131Z,4.40
2018-05-07T03:58:11.692Z,4.63
2018-05-07T04:00:39.295Z,4.27
2018-05-07T04:03:06.859Z,3.90
2018-05-07T04:05:35.440Z,5.50
2018-05-07T04:08:03.276Z,3.77
2018-05-07T04:10:30.836Z,4.20
2018-05-07T04:12:58.416Z,4.57
2018-05-07T04:15:26.038Z,4.73
2018-05-07T04:18:05.421Z,3.90
2018-05-07T04:20:44.950Z,3.63
2018-05-07T04:23:24.296Z,4.07
2018-05-07T04:25:52.228Z,4.90
2018-05-07T04:28:19.799Z,5.37
2018-05-07T04:30:47.598Z,5.30
2018-05-07T04:33:15.227Z,3.90
2018-05-07T04:35:43.024Z,4.40
2018-05-07T04:38:10.579Z,5.43
2018-05-07T04:40:38.166Z,4.40
2018-05-07T04:43:05.858Z,5.30
2018-05-07T04:45:33.427Z,4.30
2018-05-07T04:48:00.996Z,5.13
2018-05-07T04:50:28.681Z,4.77
2018-05-07T04:52:56.251Z,4.13
2018-05-07T04:55:23.854Z,4.30
2018-05-07T04:57:51.843Z,4.80
2018-05-07T05:00:19.487Z,4.90
2018-05-07T05:02:47.073Z,5.13
2018-05-07T05:05:14.727Z,4.23
2018-05-07T05:07:42.309Z,4.80
2018-05-07T05:10:09.903Z,4.63
2018-05-07T05:12:37.696Z,4.70
2018-05-07T05:15:05.296Z,4.70
2018-05-07T05:17:32.984Z,5.23
2018-05-07T05:20:00.895Z,4.73
2018-05-07T05:22:28.506Z,5.10
2018-05-07T05:24:56.146Z,4.60
2018-05-07T05:27:23.870Z,4.90
2018-05-07T05:29:51.451Z,5.60
2018-05-07T05:32:19.018Z,4.80
2018-05-07T05:34:47.909Z,4.80
2018-05-07T05:37:15.661Z,4.60
2018-05-07T05:39:43.348Z,5.63
2018-05-07T05:42:11.015Z,5.50
2018-05-07T05:44:38.642Z,5.17
2018-05-07T05:47:06.204Z,5.20
2018-05-07T05:49:33.857Z,4.80
2018-05-07T05:52:01.483Z,4.83
2018-05-07T05:54:29.061Z,4.67
2018-05-07T05:56:56.629Z,4.90
2018-05-07T05:59:24.236Z,4.77
2018-05-07T06:01:51.879Z,3.73
2018-05-07T06:04:19.715Z,4.50
2018-05-07T06:06:47.356Z,4.90
2018-05-07T06:09:14.964Z,4.27
2018-05-07T06:11:43.001Z,4.50
2018-05-07T06:14:10.652Z,4.37
2018-05-07T06:16:38.218Z,4.27
2018-05-07T06:19:06.226Z,4.03
2018-05-07T06:21:33.800Z,4.47
2018-05-07T06:24:01.660Z,4.07
2018-05-07T06:26:29.268Z,4.00
2018-05-07T06:28:56.922Z,3.83
2018-05-07T06:31:24.590Z,3.80
2018-05-07T06:33:52.419Z,3.70
2018-05-07T06:36:20.270Z,3.50
2018-05-07T06:38:47.883Z,4.20
2018-05-07T06:41:15.527Z,3.63
2018-05-07T06:43:43.239Z,3.23
2018-05-07T06:46:10.800Z,3.70
2018-05-07T06:48:38.625Z,3.90
2018-05-07T06:51:06.216Z,4.47
2018-05-07T06:53:33.776Z,3.77
2018-05-07T06:56:01.455Z,3.97
2018-05-07T06:58:29.045Z,3.30
2018-05-07T07:00:56.687Z,3.40
2018-05-07T07:03:24.457Z,4.07
2018-05-07T07:05:52.034Z,3.13
2018-05-07T07:08:19.747Z,3.17
2018-05-07T07:10:47.365Z,3.33
2018-05-07T07:13:14.955Z,3.40
2018-05-07T07:15:42.556Z,3.10
2018-05-07T07:18:10.158Z,3.07
2018-05-07T07:20:37.710Z,2.70
2018-05-07T07:23:05.633Z,2.93
2018-05-07T07:25:33.231Z,1.93
2018-05-07T07:28:00.869Z,2.13
2018-05-07T07:30:28.399Z,2.10
2018-05-07T07:32:57.191Z,2.53
2018-05-07T07:35:24.848Z,2.13
2018-05-07T07:37:52.485Z,2.50
2018-05-07T07:40:20.669Z,2.40
2018-05-07T07:42:48.233Z,2.40
2018-05-07T07:45:15.803Z,2.17
2018-05-07T07:47:44.051Z,2.10
2018-05-07T07:50:11.687Z,2.00
2018-05-07T07:52:39.262Z,3.10
2018-05-07T07:55:06.930Z,1.73
2018-05-07T07:57:34.507Z,2.03
2018-05-07T08:00:02.136Z,2.30
2018-05-07T08:02:29.691Z,1.90
2018-05-07T08:04:57.253Z,2.43
2018-05-07T08:07:24.963Z,2.53
2018-05-07T08:09:52.644Z,2.43
2018-05-07T08:12:20.253Z,2.50
2018-05-07T08:14:48.022Z,1.90
2018-05-07T08:17:15.598Z,2.17
2018-05-07T08:19:43.168Z,2.07
2018-05-07T08:22:10.783Z,1.53
2018-05-07T08:24:38.335Z,2.53
2018-05-07T08:27:05.974Z,2.33
2018-05-07T08:29:33.804Z,2.70
2018-05-07T08:32:01.368Z,2.03
2018-05-07T08:34:29.141Z,1.97
2018-05-07T08:36:56.957Z,2.70
2018-05-07T08:39:24.583Z,2.40
2018-05-07T08:41:52.584Z,2.27
2018-05-07T08:44:20.145Z,2.30
2018-05-07T08:46:47.875Z,2.80
2018-05-07T08:49:15.676Z,2.50
2018-05-07T08:51:43.334Z,2.50
2018-05-07T08:54:10.919Z,2.70
2018-05-07T08:56:38.715Z,1.97
2018-05-07T08:59:06.661Z,2.20
2018-05-07T09:01:34.352Z,2.53
2018-05-07T09:04:01.955Z,2.10
2018-05-07T09:06:29.538Z,2.60
2018-05-07T09:08:57.164Z,2.27
2018-05-07T09:11:24.830Z,2.33
2018-05-07T09:13:52.463Z,1.80
2018-05-07T09:16:20.056Z,1.80
2018-05-07T09:18:47.692Z,2.03
2018-05-07T09:21:15.280Z,2.40
2018-05-07T09:23:42.915Z,1.97
2018-05-07T09:26:11.094Z,2.30
2018-05-07T09:28:38.663Z,2.00
2018-05-07T09:31:06.226Z,1.93
2018-05-07T09:33:34.094Z,1.80
2018-05-07T09:36:01.870Z,2.23
2018-05-07T09:38:29.423Z,2.50
2018-05-07T09:40:57.290Z,1.73
2018-05-07T09:43:24.987Z,1.90
2018-05-07T09:45:52.779Z,1.80
2018-05-07T09:48:20.388Z,1.97
2018-05-07T09:50:47.952Z,1.53
2018-05-07T09:53:15.579Z,1.57
2018-05-07T09:55:43.186Z,1.30
2018-05-07T09:58:10.786Z,2.80
2018-05-07T10:00:38.372Z,2.17
2018-05-07T10:03:06.006Z,1.80
2018-05-07T10:05:34.551Z,1.57
2018-05-07T10:08:02.146Z,1.80
2018-05-07T10:10:29.724Z,1.70
2018-05-07T10:12:57.549Z,2.10
2018-05-07T10:15:25.120Z,1.57
2018-05-07T10:17:53.220Z,1.40
2018-05-07T10:20:20.800Z,1.97
2018-05-07T10:22:48.458Z,2.10
2018-05-07T10:25:16.076Z,1.43
2018-05-07T10:27:43.645Z,1.20
2018-05-07T10:30:11.319Z,1.67
2018-05-07T10:32:39.140Z,2.00
2018-05-07T10:35:06.782Z,1.50
2018-05-07T10:37:34.374Z,1.70
2018-05-07T10:40:02.259Z,1.77
2018-05-07T10:42:30.359Z,1.13
2018-05-07T10:44:57.914Z,1.33
2018-05-07T10:47:25.495Z,1.60
2018-05-07T10:49:53.094Z,1.37
2018-05-07T10:52:20.668Z,1.23
2018-05-07T10:54:49.017Z,1.30
2018-05-07T10:57:16.671Z,1.10
2018-05-07T10:59:44.224Z,1.83
2018-05-07T11:02:11.856Z,1.50
2018-05-07T11:04:39.409Z,1.83
2018-05-07T11:07:07.000Z,1.57
2018-05-07T11:09:34.788Z,1.53
2018-05-07T11:12:02.549Z,1.50
2018-05-07T11:14:30.095Z,1.40
2018-05-07T11:16:57.655Z,1.27
2018-05-07T11:19:25.241Z,1.97
2018-05-07T11:21:53.588Z,2.00
2018-05-07T11:24:21.172Z,2.40
2018-05-07T11:26:48.744Z,1.97
2018-05-07T11:29:16.541Z,2.30
2018-05-07T11:31:44.116Z,2.40
2018-05-07T11:34:11.912Z,2.50
2018-05-07T11:36:39.503Z,1.50
2018-05-07T11:39:07.357Z,2.20
2018-05-07T11:41:34.987Z,2.50
2018-05-07T11:44:02.648Z,2.20
2018-05-07T11:46:30.210Z,2.30
2018-05-07T11:48:58.159Z,2.63
2018-05-07T11:51:25.749Z,2.30
2018-05-07T11:53:53.382Z,2.50
2018-05-07T11:56:21.358Z,1.77
2018-05-07T11:58:48.911Z,2.10
2018-05-07T12:01:16.483Z,2.13
2018-05-07T12:03:44.420Z,2.23
2018-05-07T12:06:11.990Z,3.27
2018-05-07T12:08:39.646Z,2.03
2018-05-07T12:11:07.327Z,1.70
2018-05-07T12:13:35.107Z,2.37
2018-05-07T12:16:02.836Z,2.20
2018-05-07T12:18:30.323Z,2.17
2018-05-07T12:20:58.343Z,2.20
2018-05-07T12:23:25.892Z,2.53
2018-05-07T12:25:53.586Z,2.30
2018-05-07T12:28:21.499Z,2.23
2018-05-07T12:30:49.064Z,2.00
2018-05-07T12:33:16.947Z,2.47
2018-05-07T12:35:44.572Z,2.20
2018-05-07T12:38:12.155Z,1.90
2018-05-07T12:40:40.041Z,2.07
2018-05-07T12:43:07.640Z,2.13
2018-05-07T12:45:35.260Z,2.13
2018-05-07T12:48:02.816Z,1.90
2018-05-07T12:50:30.462Z,3.30
2018-05-07T12:52:58.115Z,2.30
2018-05-07T12:55:25.671Z,2.83
2018-05-07T12:57:53.363Z,2.10
2018-05-07T13:00:21.256Z,2.17
2018-05-07T13:02:48.891Z,1.57
2018-05-07T13:05:16.566Z,1.80
2018-05-07T13:07:44.114Z,1.70
2018-05-07T13:10:11.821Z,2.00
2018-05-07T13:12:39.613Z,1.63
2018-05-07T13:15:07.181Z,2.77
2018-05-07T13:17:35.575Z,2.60
2018-05-07T13:20:03.304Z,3.00
2018-05-07T13:22:30.915Z,2.70
2018-05-07T13:24:58.507Z,2.67
2018-05-07T13:27:26.117Z,2.60
2018-05-07T13:29:53.711Z,2.23
2018-05-07T13:32:21.279Z,2.70
2018-05-07T13:34:49.133Z,2.10
2018-05-07T13:37:17.449Z,2.67
2018-05-07T13:39:45.134Z,2.10
2018-05-07T13:42:12.684Z,2.00
2018-05-07T13:44:40.319Z,1.90
2018-05-07T13:47:07.942Z,1.70
2018-05-07T13:49:35.499Z,2.07
2018-05-07T13:52:04.028Z,2.07
2018-05-07T13:54:33.348Z,1.63
2018-05-07T13:57:02.190Z,2.80
2018-05-07T13:59:30.682Z,1.93
2018-05-07T14:01:58.390Z,1.77
2018-05-07T14:04:26.032Z,1.50
2018-05-07T14:06:53.642Z,2.10
2018-05-07T14:09:21.629Z,1.80
2018-05-07T14:11:49.721Z,1.70
2018-05-07T14:14:17.799Z,1.80
2018-05-07T14:16:45.474Z,1.87
2018-05-07T14:19:12.989Z,1.50
2018-05-07T14:21:40.645Z,1.83
2018-05-07T14:24:08.196Z,1.87
2018-05-07T14:26:35.886Z,1.80
2018-05-07T14:29:03.745Z,1.73
2018-05-07T14:31:31.392Z,2.43
2018-05-07T14:33:58.968Z,1.70
2018-05-07T14:36:26.828Z,1.87
2018-05-07T14:38:54.479Z,1.93
2018-05-07T14:41:22.277Z,2.20
2018-05-07T14:43:49.933Z,1.70
2018-05-07T14:46:17.544Z,1.70
2018-05-07T14:48:45.200Z,1.60
2018-05-07T14:51:13.003Z,1.30
2018-05-07T14:53:41.031Z,1.47
2018-05-07T14:56:08.595Z,2.10
2018-05-07T14:58:36.167Z,2.00
2018-05-07T15:01:04.120Z,1.60
2018-05-07T15:03:31.710Z,1.97
2018-05-07T15:05:59.353Z,1.90
2018-05-07T15:08:27.646Z,2.40
2018-05-07T15:10:55.250Z,1.67
2018-05-07T15:13:22.866Z,2.13
2018-05-07T15:15:50.432Z,2.00
2018-05-07T15:18:18.015Z,1.90
2018-05-07T15:20:45.965Z,1.77
2018-05-07T15:23:13.845Z,2.07
2018-05-07T15:25:41.515Z,1.77
2018-05-07T15:28:09.224Z,2.40
2018-05-07T15:30:36.784Z,1.93
2018-05-07T15:33:04.381Z,3.27
2018-05-07T15:35:32.119Z,2.50
2018-05-07T15:37:59.744Z,2.27
2018-05-07T15:40:27.399Z,2.00
2018-05-07T15:42:54.963Z,2.60
2018-05-07T15:45:22.663Z,2.03
2018-05-07T15:47:50.325Z,1.70
2018-05-07T15:50:17.875Z,2.23
2018-05-07T15:52:45.647Z,1.93
2018-05-07T15:55:13.597Z,1.70
2018-05-07T15:57:41.292Z,2.30
2018-05-07T16:00:09.146Z,2.03
2018-05-07T16:02:36.768Z,2.07
2018-05-07T16:05:04.324Z,1.57
2018-05-07T16:07:32.008Z,1.37
2018-05-07T16:09:59.803Z,2.10
2018-05-07T16:12:27.355Z,1.87
2018-05-07T16:14:55.040Z,2.03
2018-05-07T16:17:22.854Z,2.00
2018-05-07T16:19:51.091Z,1.90
2018-05-07T16:22:19.172Z,2.00
2018-05-07T16:24:46.825Z,1.90
2018-05-07T16:27:14.514Z,1.90
2018-05-07T16:29:42.067Z,1.80
2018-05-07T16:32:09.736Z,2.37
2018-05-07T16:34:37.355Z,1.70
2018-05-07T16:37:04.901Z,1.87
2018-05-07T16:39:32.535Z,2.23
2018-05-07T16:42:00.126Z,2.13
2018-05-07T16:44:28.098Z,2.10
2018-05-07T16:46:55.668Z,2.10
2018-05-07T16:49:23.239Z,2.23
2018-05-07T16:51:51.048Z,2.43
2018-05-07T16:54:18.738Z,2.23
2018-05-07T16:56:46.309Z,2.90
2018-05-07T16:59:13.867Z,1.77
2018-05-07T17:01:41.658Z,2.00
2018-05-07T17:04:09.259Z,2.40
2018-05-07T17:06:36.946Z,2.20
2018-05-07T17:09:04.559Z,2.10
2018-05-07T17:11:32.163Z,2.30
2018-05-07T17:13:59.724Z,2.20
2018-05-07T17:16:27.928Z,2.40
2018-05-07T17:18:55.533Z,1.73
2018-05-07T17:21:23.108Z,1.90
2018-05-07T17:23:51.100Z,1.87
2018-05-07T17:26:18.776Z,1.83
2018-05-07T17:28:46.336Z,2.20
2018-05-07T17:31:13.917Z,2.20
2018-05-07T17:33:41.686Z,2.30
2018-05-07T17:36:09.126Z,2.07
2018-05-07T17:38:36.710Z,2.07
2018-05-07T17:41:04.264Z,2.47
2018-05-07T17:43:31.869Z,2.03
2018-05-07T17:46:11.392Z,1.90
2018-05-07T17:48:50.955Z,1.67
2018-05-07T17:51:18.580Z,2.13
2018-05-07T17:53:46.192Z,1.70
2018-05-07T17:56:14.267Z,1.50
2018-05-07T17:58:41.835Z,1.70
2018-05-07T18:01:09.384Z,1.80
2018-05-07T18:03:37.032Z,1.60
2018-05-07T18:06:04.629Z,1.37
2018-05-07T18:08:32.476Z,1.40
2018-05-07T18:11:00.029Z,1.70
2018-05-07T18:13:27.658Z,1.70
2018-05-07T18:15:55.377Z,1.60
2018-05-07T18:18:22.994Z,1.80
2018-05-07T18:20:50.637Z,1.93
2018-05-07T18:23:18.463Z,1.10
2018-05-07T18:25:46.271Z,1.73
2018-05-07T18:28:14.107Z,1.40
2018-05-07T18:30:41.992Z,1.63
2018-05-07T18:33:09.636Z,1.10
2018-05-07T18:35:37.276Z,1.10
2018-05-07T18:38:04.927Z,1.60
2018-05-07T18:40:32.487Z,1.80
2018-05-07T18:43:00.071Z,1.43
2018-05-07T18:45:27.637Z,1.53
2018-05-07T18:47:55.310Z,1.90
2018-05-07T18:50:22.879Z,2.60
2018-05-07T18:52:50.569Z,1.87
2018-05-07T18:55:18.162Z,1.47
2018-05-07T18:57:45.850Z,1.97
2018-05-07T19:00:13.505Z,1.90
2018-05-07T19:02:41.092Z,2.30
2018-05-07T19:05:08.793Z,1.83
2018-05-07T19:07:36.464Z,2.90
2018-05-07T19:10:04.084Z,2.20
2018-05-07T19:12:31.688Z,2.80
2018-05-07T19:14:59.264Z,1.73
2018-05-07T19:17:26.997Z,2.63
2018-05-07T19:19:54.822Z,2.23
2018-05-07T19:22:22.398Z,1.80
2018-05-07T19:24:50.199Z,1.80
2018-05-07T19:27:17.844Z,2.70
2018-05-07T19:29:46.346Z,2.13
2018-05-07T19:32:14.071Z,1.40
2018-05-07T19:34:41.634Z,2.50
2018-05-07T19:37:09.213Z,1.70
2018-05-07T19:39:36.929Z,1.67
2018-05-07T19:42:04.492Z,1.80
2018-05-07T19:44:32.041Z,2.30
2018-05-07T19:46:59.627Z,1.73
2018-05-07T19:49:27.277Z,2.70
2018-05-07T19:51:54.895Z,2.37
2018-05-07T19:54:22.716Z,2.07
2018-05-07T19:56:50.447Z,3.13
2018-05-07T19:59:18.051Z,2.50
2018-05-07T20:01:45.678Z,2.30
2018-05-07T20:04:13.614Z,1.87
2018-05-07T20:06:41.422Z,2.10
2018-05-07T20:09:09.359Z,1.63
2018-05-07T20:11:37.286Z,2.40
2018-05-07T20:14:04.860Z,2.50
2018-05-07T20:16:32.501Z,2.10
2018-05-07T20:19:00.062Z,2.10
2018-05-07T20:21:27.718Z,2.07
2018-05-07T20:23:55.706Z,2.60
2018-05-07T20:26:23.300Z,2.30
2018-05-07T20:28:50.991Z,2.20
2018-05-07T20:31:18.547Z,2.03
2018-05-07T20:33:46.211Z,2.33
2018-05-07T20:36:14.141Z,2.80
2018-05-07T20:38:41.696Z,2.93
2018-05-07T20:41:09.257Z,2.87
2018-05-07T20:43:36.844Z,2.87
2018-05-07T20:46:04.455Z,3.50
2018-05-07T20:48:32.082Z,3.50
2018-05-07T20:50:59.630Z,3.03
2018-05-07T20:53:27.824Z,3.47
2018-05-07T20:55:55.384Z,3.40
2018-05-07T20:58:23.196Z,3.60
2018-05-07T21:00:51.293Z,4.10
2018-05-07T21:03:18.924Z,2.67
2018-05-07T21:05:46.480Z,3.50
2018-05-07T21:08:14.323Z,2.63
2018-05-07T21:10:41.966Z,3.00
2018-05-07T21:13:09.614Z,2.63
2018-05-07T21:15:37.116Z,2.47
2018-05-07T21:18:04.747Z,2.10
2018-05-07T21:20:32.571Z,3.30
2018-05-07T21:23:00.262Z,1.93
2018-05-07T21:25:28.237Z,2.57
2018-05-07T21:27:56.145Z,3.00
2018-05-07T21:30:23.847Z,2.43
2018-05-07T21:32:51.530Z,2.37
2018-05-07T21:35:19.190Z,2.00
2018-05-07T21:37:46.835Z,2.30
2018-05-07T21:40:14.398Z,2.43
2018-05-07T21:42:41.953Z,2.20
2018-05-07T21:45:09.603Z,2.20
2018-05-07T21:47:37.179Z,2.13
2018-05-07T21:50:05.158Z,2.07
2018-05-07T21:52:32.891Z,2.47
2018-05-07T21:55:00.443Z,2.53
2018-05-07T21:57:28.023Z,2.50
2018-05-07T21:59:55.582Z,2.53
2018-05-07T22:02:23.200Z,2.40
2018-05-07T22:04:50.817Z,2.50
2018-05-07T22:07:18.473Z,2.70
2018-05-07T22:09:46.302Z,2.17
2018-05-07T22:12:14.152Z,2.40
2018-05-07T22:14:41.727Z,2.90
2018-05-07T22:17:09.316Z,2.03
2018-05-07T22:19:36.884Z,2.17
2018-05-07T22:22:04.487Z,2.40
2018-05-07T22:24:32.142Z,2.03
2018-05-07T22:26:59.725Z,2.63
2018-05-07T22:29:27.346Z,2.50
2018-05-07T22:31:55.180Z,3.00
2018-05-07T22:34:22.799Z,2.47
2018-05-07T22:36:50.537Z,2.87
2018-05-07T22:39:18.160Z,2.20
2018-05-07T22:41:45.748Z,2.30
2018-05-07T22:44:13.393Z,2.30
2018-05-07T22:46:41.050Z,2.83
2018-05-07T22:49:08.929Z,2.57
2018-05-07T22:51:36.538Z,1.93
2018-05-07T22:54:04.113Z,1.97
2018-05-07T22:56:31.987Z,2.97
2018-05-07T22:58:59.538Z,3.57
2018-05-07T23:01:27.563Z,2.90
2018-05-07T23:03:55.211Z,3.30
2018-05-07T23:06:22.772Z,2.73
2018-05-07T23:08:50.374Z,2.60
2018-05-07T23:11:18.001Z,3.37
2018-05-07T23:13:45.581Z,3.80
2018-05-07T23:16:13.196Z,2.87
2018-05-07T23:18:40.785Z,2.93
2018-05-07T23:21:08.343Z,3.43
2018-05-07T23:23:35.924Z,3.60
2018-05-07T23:26:03.710Z,3.20
2018-05-07T23:28:31.329Z,4.10
2018-05-07T23:30:59.021Z,3.47
2018-05-07T23:33:26.680Z,3.30
2018-05-07T23:35:54.315Z,3.30
2018-05-07T23:38:21.898Z,3.33
2018-05-07T23:40:49.453Z,3.30
2018-05-07T23:43:17.052Z,3.07
2018-05-07T23:45:44.640Z,3.40
2018-05-07T23:48:12.295Z,4.07
2018-05-07T23:50:39.891Z,2.93
2018-05-07T23:53:07.448Z,4.00
2018-05-07T23:55:35.294Z,3.67
2018-05-07T23:58:02.844Z,2.90
